sensor_id;sensor_type;location;lat;lon;timestamp;pressure;altitude;pressure_sealevel;temperature;humidity
40982;BME280;26708;50.304;19.028;2024-01-11T00:01:31;99508.84;;;-6.81;54.07
40982;BME280;26708;50.304;19.028;2024-01-11T00:03:36;99497.53;;;-6.84;54.25
40982;BME280;26708;50.304;19.028;2024-01-11T00:05:40;99553.38;;;-6.54;54.25
40982;BME280;26708;50.304;19.028;2024-01-11T00:07:45;99543.34;;;-6.53;54.25
40982;BME280;26708;50.304;19.028;2024-01-11T00:09:51;99521.13;;;-6.65;54.09
40982;BME280;26708;50.304;19.028;2024-01-11T00:11:58;99362.75;;;-7.58;54.22
40982;BME280;26708;50.304;19.028;2024-01-11T00:14:03;99482.56;;;-6.91;54.08
40982;BME280;26708;50.304;19.028;2024-01-11T00:16:08;99539.94;;;-6.63;54.48
40982;BME280;26708;50.304;19.028;2024-01-11T00:18:13;99544.91;;;-6.65;54.45
40982;BME280;26708;50.304;19.028;2024-01-11T00:20:18;99427.44;;;-7.33;53.80
40982;BME280;26708;50.304;19.028;2024-01-11T00:22:24;99544.16;;;-6.74;53.69
40982;BME280;26708;50.304;19.028;2024-01-11T00:24:28;99543.69;;;-6.80;53.61
40982;BME280;26708;50.304;19.028;2024-01-11T00:26:33;99536.59;;;-6.84;53.48
40982;BME280;26708;50.304;19.028;2024-01-11T00:28:41;99533.13;;;-6.84;53.46
40982;BME280;26708;50.304;19.028;2024-01-11T00:30:43;99464.66;;;-7.24;53.92
40982;BME280;26708;50.304;19.028;2024-01-11T00:32:47;99440.81;;;-7.36;53.97
40982;BME280;26708;50.304;19.028;2024-01-11T00:34:53;99405.56;;;-7.63;54.09
40982;BME280;26708;50.304;19.028;2024-01-11T00:36:55;99482.84;;;-6.98;54.57
40982;BME280;26708;50.304;19.028;2024-01-11T00:38:59;99514.47;;;-6.85;55.08
40982;BME280;26708;50.304;19.028;2024-01-11T00:41:04;99417.19;;;-7.35;55.46
40982;BME280;26708;50.304;19.028;2024-01-11T00:43:09;99448.47;;;-7.14;55.20
40982;BME280;26708;50.304;19.028;2024-01-11T00:45:16;99373.03;;;-7.57;55.09
40982;BME280;26708;50.304;19.028;2024-01-11T00:47:21;99497.44;;;-6.86;54.93
40982;BME280;26708;50.304;19.028;2024-01-11T00:49:26;99507.06;;;-6.82;55.05
40982;BME280;26708;50.304;19.028;2024-01-11T00:51:28;99476.25;;;-6.96;54.95
40982;BME280;26708;50.304;19.028;2024-01-11T00:53:33;99493.94;;;-6.76;55.36
40982;BME280;26708;50.304;19.028;2024-01-11T00:55:38;99493.31;;;-6.74;55.28
40982;BME280;26708;50.304;19.028;2024-01-11T00:57:42;99435.06;;;-7.23;55.42
40982;BME280;26708;50.304;19.028;2024-01-11T00:59:48;99475.06;;;-6.90;55.54
40982;BME280;26708;50.304;19.028;2024-01-11T01:01:55;99500.38;;;-6.60;55.58
40982;BME280;26708;50.304;19.028;2024-01-11T01:03:59;99435.38;;;-7.09;55.43
40982;BME280;26708;50.304;19.028;2024-01-11T01:06:05;99472.25;;;-6.61;55.64
40982;BME280;26708;50.304;19.028;2024-01-11T01:08:09;99467.09;;;-6.73;55.53
40982;BME280;26708;50.304;19.028;2024-01-11T01:10:14;99457.00;;;-6.61;55.87
40982;BME280;26708;50.304;19.028;2024-01-11T01:12:19;99462.44;;;-6.57;55.65
40982;BME280;26708;50.304;19.028;2024-01-11T01:14:26;99472.31;;;-6.50;55.08
40982;BME280;26708;50.304;19.028;2024-01-11T01:16:30;99435.03;;;-6.92;54.50
40982;BME280;26708;50.304;19.028;2024-01-11T01:18:38;99464.88;;;-6.58;53.54
40982;BME280;26708;50.304;19.028;2024-01-11T01:20:43;99499.53;;;-6.49;53.15
40982;BME280;26708;50.304;19.028;2024-01-11T01:22:47;99391.81;;;-7.13;52.86
40982;BME280;26708;50.304;19.028;2024-01-11T01:24:53;99487.66;;;-6.60;53.00
40982;BME280;26708;50.304;19.028;2024-01-11T01:26:59;99353.41;;;-7.38;52.92
40982;BME280;26708;50.304;19.028;2024-01-11T01:29:03;99369.53;;;-7.37;52.97
40982;BME280;26708;50.304;19.028;2024-01-11T01:31:09;99469.94;;;-6.80;53.14
40982;BME280;26708;50.304;19.028;2024-01-11T01:33:14;99314.81;;;-7.75;53.02
40982;BME280;26708;50.304;19.028;2024-01-11T01:35:18;99486.56;;;-6.73;53.01
40982;BME280;26708;50.304;19.028;2024-01-11T01:37:23;99480.38;;;-6.77;53.18
40982;BME280;26708;50.304;19.028;2024-01-11T01:39:25;99313.28;;;-7.73;52.86
40982;BME280;26708;50.304;19.028;2024-01-11T01:41:30;99467.44;;;-6.90;52.94
40982;BME280;26708;50.304;19.028;2024-01-11T01:43:35;99491.41;;;-6.76;52.58
40982;BME280;26708;50.304;19.028;2024-01-11T01:45:40;99481.78;;;-6.80;52.90
40982;BME280;26708;50.304;19.028;2024-01-11T01:47:45;99486.84;;;-6.80;52.70
40982;BME280;26708;50.304;19.028;2024-01-11T01:49:49;99487.50;;;-6.83;52.60
40982;BME280;26708;50.304;19.028;2024-01-11T01:51:56;99479.66;;;-6.86;52.59
40982;BME280;26708;50.304;19.028;2024-01-11T01:54:03;99478.63;;;-6.88;52.73
40982;BME280;26708;50.304;19.028;2024-01-11T01:56:09;99477.63;;;-6.90;52.86
40982;BME280;26708;50.304;19.028;2024-01-11T01:58:17;99473.31;;;-6.91;52.83
40982;BME280;26708;50.304;19.028;2024-01-11T02:00:20;99444.34;;;-7.02;53.17
40982;BME280;26708;50.304;19.028;2024-01-11T02:02:27;99447.66;;;-7.03;53.70
40982;BME280;26708;50.304;19.028;2024-01-11T02:04:33;99447.78;;;-7.02;54.17
40982;BME280;26708;50.304;19.028;2024-01-11T02:06:39;99420.25;;;-7.17;54.18
40982;BME280;26708;50.304;19.028;2024-01-11T02:08:49;99448.88;;;-6.89;54.33
40982;BME280;26708;50.304;19.028;2024-01-11T02:10:56;99432.13;;;-6.97;54.51
40982;BME280;26708;50.304;19.028;2024-01-11T02:13:04;99413.56;;;-6.96;55.08
40982;BME280;26708;50.304;19.028;2024-01-11T02:15:10;99438.13;;;-6.75;55.28
40982;BME280;26708;50.304;19.028;2024-01-11T02:17:15;99450.69;;;-6.66;55.41
40982;BME280;26708;50.304;19.028;2024-01-11T02:19:20;99445.41;;;-6.58;55.48
40982;BME280;26708;50.304;19.028;2024-01-11T02:21:27;99422.94;;;-6.63;55.08
40982;BME280;26708;50.304;19.028;2024-01-11T02:23:42;99436.19;;;-6.46;55.26
40982;BME280;26708;50.304;19.028;2024-01-11T02:25:52;99334.09;;;-6.93;55.35
40982;BME280;26708;50.304;19.028;2024-01-11T02:27:57;99355.28;;;-6.83;55.38
40982;BME280;26708;50.304;19.028;2024-01-11T02:30:02;99436.28;;;-6.23;55.00
40982;BME280;26708;50.304;19.028;2024-01-11T02:32:07;99337.56;;;-6.93;53.42
40982;BME280;26708;50.304;19.028;2024-01-11T02:34:12;99314.41;;;-6.96;53.07
40982;BME280;26708;50.304;19.028;2024-01-11T02:36:17;99432.34;;;-6.29;52.85
40982;BME280;26708;50.304;19.028;2024-01-11T02:38:23;99439.78;;;-6.32;52.65
40982;BME280;26708;50.304;19.028;2024-01-11T02:40:29;99334.94;;;-7.04;52.28
40982;BME280;26708;50.304;19.028;2024-01-11T02:42:36;99357.41;;;-6.98;52.57
40982;BME280;26708;50.304;19.028;2024-01-11T02:44:40;99448.94;;;-6.56;52.33
40982;BME280;26708;50.304;19.028;2024-01-11T02:46:46;99448.38;;;-6.63;52.48
40982;BME280;26708;50.304;19.028;2024-01-11T02:48:48;99371.88;;;-7.19;52.62
40982;BME280;26708;50.304;19.028;2024-01-11T02:50:53;99442.03;;;-6.68;53.10
40982;BME280;26708;50.304;19.028;2024-01-11T02:52:59;99445.59;;;-6.66;53.41
40982;BME280;26708;50.304;19.028;2024-01-11T02:55:01;99441.38;;;-6.66;53.71
40982;BME280;26708;50.304;19.028;2024-01-11T02:57:05;99415.66;;;-6.80;53.46
40982;BME280;26708;50.304;19.028;2024-01-11T02:59:13;99406.19;;;-6.93;53.41
40982;BME280;26708;50.304;19.028;2024-01-11T03:01:18;99435.88;;;-6.60;53.64
40982;BME280;26708;50.304;19.028;2024-01-11T03:03:22;99428.25;;;-6.60;53.75
40982;BME280;26708;50.304;19.028;2024-01-11T03:05:28;99435.13;;;-6.59;54.00
40982;BME280;26708;50.304;19.028;2024-01-11T03:07:32;99415.28;;;-6.63;53.96
40982;BME280;26708;50.304;19.028;2024-01-11T03:09:37;99406.47;;;-6.57;54.50
40982;BME280;26708;50.304;19.028;2024-01-11T03:11:42;99384.56;;;-6.66;54.69
40982;BME280;26708;50.304;19.028;2024-01-11T03:13:46;99408.19;;;-6.46;54.85
40982;BME280;26708;50.304;19.028;2024-01-11T03:15:54;99403.09;;;-6.46;55.12
40982;BME280;26708;50.304;19.028;2024-01-11T03:17:59;99383.91;;;-6.52;54.08
40982;BME280;26708;50.304;19.028;2024-01-11T03:20:04;99403.16;;;-6.34;54.14
40982;BME280;26708;50.304;19.028;2024-01-11T03:22:11;99367.47;;;-6.46;53.85
40982;BME280;26708;50.304;19.028;2024-01-11T03:24:17;99365.16;;;-6.43;53.81
40982;BME280;26708;50.304;19.028;2024-01-11T03:26:19;99402.16;;;-6.25;53.30
40982;BME280;26708;50.304;19.028;2024-01-11T03:28:24;99402.06;;;-6.26;52.38
40982;BME280;26708;50.304;19.028;2024-01-11T03:30:26;99405.38;;;-6.27;52.21
40982;BME280;26708;50.304;19.028;2024-01-11T03:32:33;99221.50;;;-7.46;51.88
40982;BME280;26708;50.304;19.028;2024-01-11T03:34:38;99387.31;;;-6.30;51.71
40982;BME280;26708;50.304;19.028;2024-01-11T03:36:43;99362.81;;;-6.51;51.49
40982;BME280;26708;50.304;19.028;2024-01-11T03:38:47;99258.41;;;-7.18;51.63
40982;BME280;26708;50.304;19.028;2024-01-11T03:40:50;99393.78;;;-6.45;52.10
40982;BME280;26708;50.304;19.028;2024-01-11T03:42:54;99304.31;;;-7.05;51.83
40982;BME280;26708;50.304;19.028;2024-01-11T03:44:59;99408.25;;;-6.56;51.84
40982;BME280;26708;50.304;19.028;2024-01-11T03:47:05;99382.06;;;-6.76;51.92
40982;BME280;26708;50.304;19.028;2024-01-11T03:49:12;99255.31;;;-7.57;52.36
40982;BME280;26708;50.304;19.028;2024-01-11T03:51:16;99408.97;;;-6.68;52.76
40982;BME280;26708;50.304;19.028;2024-01-11T03:53:19;99398.69;;;-6.70;53.15
40982;BME280;26708;50.304;19.028;2024-01-11T03:55:23;99388.75;;;-6.67;54.09
40982;BME280;26708;50.304;19.028;2024-01-11T03:57:28;99350.63;;;-6.88;54.30
40982;BME280;26708;50.304;19.028;2024-01-11T03:59:33;99403.28;;;-6.54;54.72
40982;BME280;26708;50.304;19.028;2024-01-11T04:01:40;99398.66;;;-6.48;54.79
40982;BME280;26708;50.304;19.028;2024-01-11T04:03:44;99391.50;;;-6.42;54.95
40982;BME280;26708;50.304;19.028;2024-01-11T04:05:53;99358.47;;;-6.52;55.07
40982;BME280;26708;50.304;19.028;2024-01-11T04:07:58;99377.56;;;-6.36;55.16
40982;BME280;26708;50.304;19.028;2024-01-11T04:10:00;99382.16;;;-6.20;55.38
40982;BME280;26708;50.304;19.028;2024-01-11T04:12:06;99375.09;;;-6.13;55.38
40982;BME280;26708;50.304;19.028;2024-01-11T04:14:11;99376.41;;;-6.06;55.52
40982;BME280;26708;50.304;19.028;2024-01-11T04:16:16;99324.72;;;-6.28;55.43
40982;BME280;26708;50.304;19.028;2024-01-11T04:18:21;99363.28;;;-6.01;55.26
40982;BME280;26708;50.304;19.028;2024-01-11T04:20:23;99312.53;;;-6.21;54.93
40982;BME280;26708;50.304;19.028;2024-01-11T04:22:30;99371.50;;;-5.82;55.06
40982;BME280;26708;50.304;19.028;2024-01-11T04:24:36;99364.38;;;-5.74;55.01
40982;BME280;26708;50.304;19.028;2024-01-11T04:26:38;99378.47;;;-5.68;55.00
40982;BME280;26708;50.304;19.028;2024-01-11T04:28:44;99391.69;;;-5.62;54.39
40982;BME280;26708;50.304;19.028;2024-01-11T04:30:47;99395.22;;;-5.60;54.04
40982;BME280;26708;50.304;19.028;2024-01-11T04:32:51;99373.25;;;-5.69;53.96
40982;BME280;26708;50.304;19.028;2024-01-11T04:34:56;99379.91;;;-5.60;54.16
40982;BME280;26708;50.304;19.028;2024-01-11T04:37:01;99377.50;;;-5.58;54.54
40982;BME280;26708;50.304;19.028;2024-01-11T04:39:08;99233.31;;;-6.37;54.61
40982;BME280;26708;50.304;19.028;2024-01-11T04:41:14;99373.94;;;-5.49;54.80
40982;BME280;26708;50.304;19.028;2024-01-11T04:43:17;99364.06;;;-5.44;54.66
40982;BME280;26708;50.304;19.028;2024-01-11T04:45:22;99369.41;;;-5.41;54.71
40982;BME280;26708;50.304;19.028;2024-01-11T04:47:26;99379.13;;;-5.36;54.71
40982;BME280;26708;50.304;19.028;2024-01-11T04:49:31;99377.56;;;-5.34;54.34
40982;BME280;26708;50.304;19.028;2024-01-11T04:51:36;99243.03;;;-6.08;54.02
40982;BME280;26708;50.304;19.028;2024-01-11T04:53:42;99380.25;;;-5.32;53.55
40982;BME280;26708;50.304;19.028;2024-01-11T04:55:50;99376.59;;;-5.36;53.51
40982;BME280;26708;50.304;19.028;2024-01-11T04:57:54;99362.63;;;-5.41;53.84
40982;BME280;26708;50.304;19.028;2024-01-11T04:59:59;99366.59;;;-5.33;53.93
40982;BME280;26708;50.304;19.028;2024-01-11T05:02:04;99346.66;;;-5.38;53.98
40982;BME280;26708;50.304;19.028;2024-01-11T05:04:09;99257.44;;;-5.86;53.77
40982;BME280;26708;50.304;19.028;2024-01-11T05:06:18;99366.25;;;-5.26;53.66
40982;BME280;26708;50.304;19.028;2024-01-11T05:08:25;99351.28;;;-5.21;53.80
40982;BME280;26708;50.304;19.028;2024-01-11T05:10:29;99342.97;;;-5.19;53.62
40982;BME280;26708;50.304;19.028;2024-01-11T05:12:36;99328.25;;;-5.23;53.46
40982;BME280;26708;50.304;19.028;2024-01-11T05:14:42;99334.19;;;-5.11;53.38
40982;BME280;26708;50.304;19.028;2024-01-11T05:16:46;99323.69;;;-5.15;53.23
40982;BME280;26708;50.304;19.028;2024-01-11T05:18:52;99328.97;;;-5.12;53.21
40982;BME280;26708;50.304;19.028;2024-01-11T05:20:59;99210.44;;;-5.66;52.97
40982;BME280;26708;50.304;19.028;2024-01-11T05:23:03;99325.41;;;-5.03;52.92
40982;BME280;26708;50.304;19.028;2024-01-11T05:25:09;99300.59;;;-5.17;53.09
40982;BME280;26708;50.304;19.028;2024-01-11T05:27:14;99171.75;;;-5.97;52.87
40982;BME280;26708;50.304;19.028;2024-01-11T05:29:22;99337.50;;;-5.00;52.87
40982;BME280;26708;50.304;19.028;2024-01-11T05:31:26;99345.94;;;-5.01;52.82
40982;BME280;26708;50.304;19.028;2024-01-11T05:33:31;99154.84;;;-6.08;52.71
40982;BME280;26708;50.304;19.028;2024-01-11T05:35:33;99258.72;;;-5.56;52.90
40982;BME280;26708;50.304;19.028;2024-01-11T05:37:38;99361.34;;;-5.00;53.10
40982;BME280;26708;50.304;19.028;2024-01-11T05:39:43;99293.22;;;-5.25;53.00
40982;BME280;26708;50.304;19.028;2024-01-11T05:41:45;99154.25;;;-6.04;52.87
40982;BME280;26708;50.304;19.028;2024-01-11T05:43:49;99146.84;;;-6.01;53.23
40982;BME280;26708;50.304;19.028;2024-01-11T05:45:57;99319.53;;;-5.02;52.86
40982;BME280;26708;50.304;19.028;2024-01-11T05:48:03;99315.84;;;-4.94;52.90
40982;BME280;26708;50.304;19.028;2024-01-11T05:50:09;99286.28;;;-5.03;53.03
40982;BME280;26708;50.304;19.028;2024-01-11T05:52:14;99304.09;;;-4.92;52.92
40982;BME280;26708;50.304;19.028;2024-01-11T05:54:19;99307.41;;;-4.93;52.90
40982;BME280;26708;50.304;19.028;2024-01-11T05:56:23;99316.84;;;-4.92;52.84
40982;BME280;26708;50.304;19.028;2024-01-11T05:58:27;99314.38;;;-4.90;53.14
40982;BME280;26708;50.304;19.028;2024-01-11T06:00:31;99313.59;;;-4.89;52.94
40982;BME280;26708;50.304;19.028;2024-01-11T06:02:38;99318.03;;;-4.87;53.03
40982;BME280;26708;50.304;19.028;2024-01-11T06:04:44;99312.63;;;-4.91;52.71
40982;BME280;26708;50.304;19.028;2024-01-11T06:06:48;99307.41;;;-4.93;53.30
40982;BME280;26708;50.304;19.028;2024-01-11T06:08:53;99335.66;;;-4.78;53.29
40982;BME280;26708;50.304;19.028;2024-01-11T06:10:58;99324.78;;;-4.76;52.62
40982;BME280;26708;50.304;19.028;2024-01-11T06:13:03;99304.63;;;-4.84;52.63
40982;BME280;26708;50.304;19.028;2024-01-11T06:15:08;99307.72;;;-4.77;52.54
40982;BME280;26708;50.304;19.028;2024-01-11T06:17:14;99253.56;;;-5.09;52.30
40982;BME280;26708;50.304;19.028;2024-01-11T06:19:22;99321.75;;;-4.70;52.31
40982;BME280;26708;50.304;19.028;2024-01-11T06:21:27;99319.00;;;-4.73;52.08
40982;BME280;26708;50.304;19.028;2024-01-11T06:23:32;99311.44;;;-4.72;52.35
40982;BME280;26708;50.304;19.028;2024-01-11T06:25:36;99283.84;;;-4.77;52.02
40982;BME280;26708;50.304;19.028;2024-01-11T06:27:41;99292.78;;;-4.71;52.02
40982;BME280;26708;50.304;19.028;2024-01-11T06:29:47;99293.56;;;-4.72;51.79
40982;BME280;26708;50.304;19.028;2024-01-11T06:31:52;99294.34;;;-4.73;51.65
40982;BME280;26708;50.304;19.028;2024-01-11T06:33:54;99287.00;;;-4.68;51.49
40982;BME280;26708;50.304;19.028;2024-01-11T06:36:02;99258.44;;;-4.76;51.12
40982;BME280;26708;50.304;19.028;2024-01-11T06:38:07;99261.72;;;-4.65;51.15
40982;BME280;26708;50.304;19.028;2024-01-11T06:40:11;99222.19;;;-4.83;51.10
40982;BME280;26708;50.304;19.028;2024-01-11T06:42:17;99248.38;;;-4.61;50.77
40982;BME280;26708;50.304;19.028;2024-01-11T06:44:21;99217.25;;;-4.69;50.47
40982;BME280;26708;50.304;19.028;2024-01-11T06:46:26;99221.25;;;-4.59;50.48
40982;BME280;26708;50.304;19.028;2024-01-11T06:48:31;99223.94;;;-4.58;50.05
40982;BME280;26708;50.304;19.028;2024-01-11T06:50:36;99232.56;;;-4.56;50.13
40982;BME280;26708;50.304;19.028;2024-01-11T06:52:43;99211.91;;;-4.72;50.00
40982;BME280;26708;50.304;19.028;2024-01-11T06:54:48;99246.72;;;-4.48;49.83
40982;BME280;26708;50.304;19.028;2024-01-11T06:56:50;99213.03;;;-4.55;49.79
40982;BME280;26708;50.304;19.028;2024-01-11T06:58:54;99214.13;;;-4.52;49.59
40982;BME280;26708;50.304;19.028;2024-01-11T07:01:00;99233.78;;;-4.38;49.67
40982;BME280;26708;50.304;19.028;2024-01-11T07:03:06;99215.13;;;-4.37;49.44
40982;BME280;26708;50.304;19.028;2024-01-11T07:05:10;99204.13;;;-4.36;49.29
40982;BME280;26708;50.304;19.028;2024-01-11T07:07:15;99210.09;;;-4.35;49.25
40982;BME280;26708;50.304;19.028;2024-01-11T07:09:22;99194.03;;;-4.34;49.43
40982;BME280;26708;50.304;19.028;2024-01-11T07:11:27;99209.84;;;-4.14;49.21
40982;BME280;26708;50.304;19.028;2024-01-11T07:13:32;99216.22;;;-4.07;49.02
40982;BME280;26708;50.304;19.028;2024-01-11T07:15:37;99180.28;;;-4.10;49.25
40982;BME280;26708;50.304;19.028;2024-01-11T07:17:41;99197.44;;;-3.95;49.24
40982;BME280;26708;50.304;19.028;2024-01-11T07:19:47;99211.50;;;-3.88;48.77
40982;BME280;26708;50.304;19.028;2024-01-11T07:21:51;99201.19;;;-3.90;49.22
40982;BME280;26708;50.304;19.028;2024-01-11T07:23:56;99207.63;;;-3.69;48.70
40982;BME280;26708;50.304;19.028;2024-01-11T07:26:04;99204.88;;;-3.59;48.89
40982;BME280;26708;50.304;19.028;2024-01-11T07:28:08;99231.19;;;-3.47;48.51
40982;BME280;26708;50.304;19.028;2024-01-11T07:30:11;99215.06;;;-3.46;48.10
40982;BME280;26708;50.304;19.028;2024-01-11T07:32:17;99234.91;;;-3.29;48.08
40982;BME280;26708;50.304;19.028;2024-01-11T07:34:19;99254.53;;;-3.15;47.85
40982;BME280;26708;50.304;19.028;2024-01-11T07:36:23;99262.78;;;-3.06;47.39
40982;BME280;26708;50.304;19.028;2024-01-11T07:38:29;99258.63;;;-3.04;47.64
40982;BME280;26708;50.304;19.028;2024-01-11T07:40:33;99240.38;;;-2.96;47.51
40982;BME280;26708;50.304;19.028;2024-01-11T07:42:40;99238.41;;;-2.87;47.51
40982;BME280;26708;50.304;19.028;2024-01-11T07:44:47;99238.84;;;-2.79;47.42
40982;BME280;26708;50.304;19.028;2024-01-11T07:46:52;99213.25;;;-2.79;47.82
40982;BME280;26708;50.304;19.028;2024-01-11T07:48:57;99210.78;;;-2.63;47.64
40982;BME280;26708;50.304;19.028;2024-01-11T07:51:03;99205.22;;;-2.56;47.63
40982;BME280;26708;50.304;19.028;2024-01-11T07:53:07;99199.22;;;-2.57;47.48
40982;BME280;26708;50.304;19.028;2024-01-11T07:55:12;99202.59;;;-2.43;47.63
40982;BME280;26708;50.304;19.028;2024-01-11T07:57:17;99195.25;;;-2.37;47.29
40982;BME280;26708;50.304;19.028;2024-01-11T07:59:25;99178.09;;;-2.38;47.20
40982;BME280;26708;50.304;19.028;2024-01-11T08:01:29;99181.75;;;-2.20;46.93
40982;BME280;26708;50.304;19.028;2024-01-11T08:03:37;99175.19;;;-2.15;46.69
40982;BME280;26708;50.304;19.028;2024-01-11T08:05:42;99167.75;;;-2.11;46.53
40982;BME280;26708;50.304;19.028;2024-01-11T08:07:47;99170.50;;;-2.08;46.35
40982;BME280;26708;50.304;19.028;2024-01-11T08:09:52;99174.91;;;-2.05;46.16
40982;BME280;26708;50.304;19.028;2024-01-11T08:11:57;99155.81;;;-2.10;46.12
40982;BME280;26708;50.304;19.028;2024-01-11T08:14:01;99175.22;;;-1.99;46.32
40982;BME280;26708;50.304;19.028;2024-01-11T08:16:15;99127.03;;;-2.21;46.27
40982;BME280;26708;50.304;19.028;2024-01-11T08:18:20;99167.09;;;-1.92;46.14
40982;BME280;26708;50.304;19.028;2024-01-11T08:20:24;99152.84;;;-1.87;46.17
40982;BME280;26708;50.304;19.028;2024-01-11T08:22:27;99156.38;;;-1.85;45.97
40982;BME280;26708;50.304;19.028;2024-01-11T08:24:35;99152.28;;;-1.82;45.76
40982;BME280;26708;50.304;19.028;2024-01-11T08:26:40;99131.44;;;-1.88;45.42
40982;BME280;26708;50.304;19.028;2024-01-11T08:28:45;99139.97;;;-1.73;45.30
40982;BME280;26708;50.304;19.028;2024-01-11T08:30:50;99144.56;;;-1.67;45.46
40982;BME280;26708;50.304;19.028;2024-01-11T08:32:54;99124.59;;;-1.73;44.79
40982;BME280;26708;50.304;19.028;2024-01-11T08:34:59;99135.19;;;-1.67;44.47
40982;BME280;26708;50.304;19.028;2024-01-11T08:37:01;99131.44;;;-1.57;44.44
40982;BME280;26708;50.304;19.028;2024-01-11T08:39:06;99136.81;;;-1.53;44.35
40982;BME280;26708;50.304;19.028;2024-01-11T08:41:13;99143.78;;;-1.50;44.15
40982;BME280;26708;50.304;19.028;2024-01-11T08:43:17;99159.34;;;-1.47;44.03
40982;BME280;26708;50.304;19.028;2024-01-11T08:45:22;99167.19;;;-1.44;44.20
40982;BME280;26708;50.304;19.028;2024-01-11T08:47:27;99158.63;;;-1.45;43.87
40982;BME280;26708;50.304;19.028;2024-01-11T08:49:32;99124.06;;;-1.67;43.92
40982;BME280;26708;50.304;19.028;2024-01-11T08:51:36;99204.00;;;-1.44;43.59
40982;BME280;26708;50.304;19.028;2024-01-11T08:53:43;99167.84;;;-1.48;43.32
40982;BME280;26708;50.304;19.028;2024-01-11T08:55:47;99175.06;;;-1.41;43.51
40982;BME280;26708;50.304;19.028;2024-01-11T08:57:52;99081.53;;;-1.94;43.46
40982;BME280;26708;50.304;19.028;2024-01-11T08:59:57;99184.06;;;-1.33;43.87
40982;BME280;26708;50.304;19.028;2024-01-11T09:02:02;99188.72;;;-1.26;43.95
40982;BME280;26708;50.304;19.028;2024-01-11T09:04:06;99183.09;;;-1.19;43.63
40982;BME280;26708;50.304;19.028;2024-01-11T09:06:14;99180.84;;;-1.13;43.53
40982;BME280;26708;50.304;19.028;2024-01-11T09:08:19;99182.88;;;-1.08;43.14
40982;BME280;26708;50.304;19.028;2024-01-11T09:10:23;99168.91;;;-1.13;42.94
40982;BME280;26708;50.304;19.028;2024-01-11T09:12:29;99187.75;;;-0.96;43.16
40982;BME280;26708;50.304;19.028;2024-01-11T09:14:35;99178.53;;;-0.93;42.90
40982;BME280;26708;50.304;19.028;2024-01-11T09:16:40;99189.03;;;-0.88;42.77
40982;BME280;26708;50.304;19.028;2024-01-11T09:18:51;99173.44;;;-0.91;42.32
40982;BME280;26708;50.304;19.028;2024-01-11T09:20:55;99184.19;;;-0.82;42.58
40982;BME280;26708;50.304;19.028;2024-01-11T09:23:04;99193.59;;;-0.83;42.06
40982;BME280;26708;50.304;19.028;2024-01-11T09:25:10;99181.63;;;-0.82;42.53
40982;BME280;26708;50.304;19.028;2024-01-11T09:27:14;99165.59;;;-0.78;42.59
40982;BME280;26708;50.304;19.028;2024-01-11T09:29:19;99170.00;;;-0.76;42.37
40982;BME280;26708;50.304;19.028;2024-01-11T09:31:24;99176.97;;;-0.73;42.30
40982;BME280;26708;50.304;19.028;2024-01-11T09:33:29;99175.38;;;-0.71;42.71
40982;BME280;26708;50.304;19.028;2024-01-11T09:35:33;99175.50;;;-0.68;42.73
40982;BME280;26708;50.304;19.028;2024-01-11T09:37:39;99175.59;;;-0.67;42.67
40982;BME280;26708;50.304;19.028;2024-01-11T09:39:46;99149.22;;;-0.80;42.58
40982;BME280;26708;50.304;19.028;2024-01-11T09:41:55;99161.81;;;-0.69;42.69
40982;BME280;26708;50.304;19.028;2024-01-11T09:44:05;99154.16;;;-0.67;42.53
40982;BME280;26708;50.304;19.028;2024-01-11T09:46:07;99153.28;;;-0.68;42.84
40982;BME280;26708;50.304;19.028;2024-01-11T09:48:13;99134.50;;;-0.67;42.65
40982;BME280;26708;50.304;19.028;2024-01-11T09:50:17;99113.41;;;-0.77;43.04
40982;BME280;26708;50.304;19.028;2024-01-11T09:52:22;99141.63;;;-0.61;43.11
40982;BME280;26708;50.304;19.028;2024-01-11T09:54:29;99137.50;;;-0.58;43.19
40982;BME280;26708;50.304;19.028;2024-01-11T09:56:38;99101.81;;;-0.69;43.59
40982;BME280;26708;50.304;19.028;2024-01-11T09:58:47;99125.69;;;-0.54;43.42
40982;BME280;26708;50.304;19.028;2024-01-11T10:00:54;99100.69;;;-0.58;43.24
40982;BME280;26708;50.304;19.028;2024-01-11T10:03:01;99115.22;;;-0.41;43.51
40982;BME280;26708;50.304;19.028;2024-01-11T10:05:07;99099.59;;;-0.46;42.98
40982;BME280;26708;50.304;19.028;2024-01-11T10:07:13;99114.63;;;-0.36;42.85
40982;BME280;26708;50.304;19.028;2024-01-11T10:09:22;99117.34;;;-0.33;43.18
40982;BME280;26708;50.304;19.028;2024-01-11T10:11:27;99118.31;;;-0.31;43.22
40982;BME280;26708;50.304;19.028;2024-01-11T10:13:36;99114.13;;;-0.29;43.31
40982;BME280;26708;50.304;19.028;2024-01-11T10:15:41;99106.41;;;-0.29;43.16
40982;BME280;26708;50.304;19.028;2024-01-11T10:17:45;99103.84;;;-0.29;43.02
40982;BME280;26708;50.304;19.028;2024-01-11T10:19:50;99102.09;;;-0.30;43.16
40982;BME280;26708;50.304;19.028;2024-01-11T10:21:58;99084.59;;;-0.37;43.50
40982;BME280;26708;50.304;19.028;2024-01-11T10:24:03;99066.19;;;-0.46;43.11
40982;BME280;26708;50.304;19.028;2024-01-11T10:26:08;99101.38;;;-0.27;43.35
40982;BME280;26708;50.304;19.028;2024-01-11T10:28:13;99086.59;;;-0.31;43.25
40982;BME280;26708;50.304;19.028;2024-01-11T10:30:22;99090.41;;;-0.23;43.50
40982;BME280;26708;50.304;19.028;2024-01-11T10:32:28;99081.16;;;-0.20;43.33
40982;BME280;26708;50.304;19.028;2024-01-11T10:34:31;99069.78;;;-0.42;42.88
40982;BME280;26708;50.304;19.028;2024-01-11T10:36:36;99090.63;;;-0.19;42.71
40982;BME280;26708;50.304;19.028;2024-01-11T10:38:46;99083.06;;;-0.16;42.64
40982;BME280;26708;50.304;19.028;2024-01-11T10:40:54;99069.09;;;-0.21;42.93
40982;BME280;26708;50.304;19.028;2024-01-11T10:43:01;99022.72;;;-0.41;42.61
40982;BME280;26708;50.304;19.028;2024-01-11T10:45:16;99025.50;;;-0.37;42.04
40982;BME280;26708;50.304;19.028;2024-01-11T10:47:30;99065.13;;;-0.14;42.17
40982;BME280;26708;50.304;19.028;2024-01-11T10:49:39;99080.25;;;-0.03;42.35
40982;BME280;26708;50.304;19.028;2024-01-11T10:51:52;99078.69;;;0.01;42.41
40982;BME280;26708;50.304;19.028;2024-01-11T10:54:03;99062.44;;;0.02;42.60
40982;BME280;26708;50.304;19.028;2024-01-11T10:56:06;99049.06;;;0.09;42.35